createdAt,value
2022-09-14T00:02:16.158Z,0.00
2022-09-14T00:17:16.089Z,0.00
2022-09-14T00:32:16.336Z,0.00
2022-09-14T00:47:16.291Z,0.00
2022-09-14T01:02:16.500Z,0.00
2022-09-14T01:17:16.460Z,0.00
2022-09-14T01:32:16.585Z,0.00
2022-09-14T01:47:16.725Z,0.00
2022-09-14T02:02:16.852Z,0.00
2022-09-14T02:17:16.849Z,0.00
2022-09-14T02:32:16.962Z,0.00
2022-09-14T02:47:17.040Z,0.00
2022-09-14T03:02:17.211Z,0.00
2022-09-14T03:17:17.199Z,0.00
2022-09-14T03:32:17.310Z,0.00
2022-09-14T03:47:17.489Z,0.00
2022-09-14T04:02:17.637Z,0.00
2022-09-14T04:17:17.670Z,0.00
2022-09-14T04:32:17.832Z,5.62
2022-09-14T04:47:17.842Z,16.88
2022-09-14T05:02:18.479Z,45.00
2022-09-14T05:17:18.981Z,90.00
2022-09-14T05:32:19.104Z,123.75
2022-09-14T05:47:19.201Z,112.50
2022-09-14T06:02:19.401Z,151.88
2022-09-14T06:17:19.401Z,253.12
2022-09-14T06:32:19.493Z,247.50
2022-09-14T06:47:19.562Z,348.75
2022-09-14T07:02:19.807Z,286.88
2022-09-14T07:17:19.836Z,450.00
2022-09-14T07:32:19.943Z,489.38
2022-09-14T07:47:19.934Z,450.00
2022-09-14T08:02:20.210Z,511.88
2022-09-14T08:17:20.113Z,585.00
2022-09-14T08:32:20.221Z,675.00
2022-09-14T08:47:20.309Z,635.62
2022-09-14T09:02:20.468Z,641.25
2022-09-14T09:17:20.474Z,669.38
2022-09-14T09:32:20.597Z,961.88
2022-09-14T09:47:20.678Z,1293.75
2022-09-14T10:02:20.860Z,928.12
2022-09-14T10:17:20.848Z,1518.75
2022-09-14T10:32:22.244Z,1220.62
2022-09-14T10:47:22.848Z,1890.00
2022-09-14T11:02:23.564Z,1130.62
2022-09-14T11:17:26.837Z,1901.25
2022-09-14T11:32:26.883Z,2216.25
2022-09-14T11:47:27.091Z,1254.38
2022-09-14T12:02:27.177Z,871.88
2022-09-14T12:17:42.619Z,416.25
2022-09-14T12:32:32.404Z,450.00
2022-09-14T12:47:32.389Z,1063.12
2022-09-14T13:02:32.895Z,1468.12
2022-09-14T13:17:34.076Z,961.88
2022-09-14T13:32:34.210Z,483.75
2022-09-14T13:47:34.393Z,466.88
2022-09-14T14:02:34.547Z,371.25
2022-09-14T14:17:34.553Z,264.38
2022-09-14T14:32:34.623Z,286.88
2022-09-14T14:47:34.696Z,213.75
2022-09-14T15:02:34.802Z,196.88
2022-09-14T15:17:34.878Z,180.00
2022-09-14T15:32:35.061Z,151.88
2022-09-14T15:47:36.629Z,140.62
2022-09-14T16:02:37.277Z,101.25
2022-09-14T16:17:37.272Z,106.88
2022-09-14T16:32:37.865Z,61.88
